sensor_id;sensor_type;location;lat;lon;timestamp;P1;durP1;ratioP1;P2;durP2;ratioP2
45688;SDS011;31400;48.132;20.872;2022-09-03T00:06:59;11.63;;;4.32;;
45688;SDS011;31400;48.132;20.872;2022-09-03T00:09:30;5.53;;;3.50;;
45688;SDS011;31400;48.132;20.872;2022-09-03T00:14:33;8.23;;;3.83;;
45688;SDS011;31400;48.132;20.872;2022-09-03T00:17:12;8.85;;;4.25;;
45688;SDS011;31400;48.132;20.872;2022-09-03T00:19:42;7.03;;;3.85;;
45688;SDS011;31400;48.132;20.872;2022-09-03T00:22:15;10.95;;;6.40;;
45688;SDS011;31400;48.132;20.872;2022-09-03T00:24:43;6.60;;;4.60;;
45688;SDS011;31400;48.132;20.872;2022-09-03T00:27:17;7.22;;;4.03;;
45688;SDS011;31400;48.132;20.872;2022-09-03T00:29:47;9.18;;;5.22;;
45688;SDS011;31400;48.132;20.872;2022-09-03T00:32:18;10.48;;;4.10;;
45688;SDS011;31400;48.132;20.872;2022-09-03T00:34:50;8.00;;;3.40;;
45688;SDS011;31400;48.132;20.872;2022-09-03T00:37:17;10.80;;;4.65;;
45688;SDS011;31400;48.132;20.872;2022-09-03T00:39:43;8.30;;;3.53;;
45688;SDS011;31400;48.132;20.872;2022-09-03T00:47:28;8.60;;;4.28;;
45688;SDS011;31400;48.132;20.872;2022-09-03T00:49:58;5.32;;;3.85;;
45688;SDS011;31400;48.132;20.872;2022-09-03T00:52:48;9.55;;;4.75;;
45688;SDS011;31400;48.132;20.872;2022-09-03T01:00:18;6.32;;;3.67;;
45688;SDS011;31400;48.132;20.872;2022-09-03T01:05:57;10.05;;;4.22;;
45688;SDS011;31400;48.132;20.872;2022-09-03T01:26:54;5.40;;;3.45;;
45688;SDS011;31400;48.132;20.872;2022-09-03T01:29:30;9.30;;;3.33;;
45688;SDS011;31400;48.132;20.872;2022-09-03T01:32:22;5.10;;;3.17;;
45688;SDS011;31400;48.132;20.872;2022-09-03T01:35:06;9.80;;;3.47;;
45688;SDS011;31400;48.132;20.872;2022-09-03T01:37:46;7.22;;;3.03;;
45688;SDS011;31400;48.132;20.872;2022-09-03T01:58:55;6.18;;;3.65;;
45688;SDS011;31400;48.132;20.872;2022-09-03T02:01:28;10.10;;;2.72;;
45688;SDS011;31400;48.132;20.872;2022-09-03T02:03:55;6.03;;;4.00;;
45688;SDS011;31400;48.132;20.872;2022-09-03T02:06:27;8.13;;;3.30;;
45688;SDS011;31400;48.132;20.872;2022-09-03T02:08:55;5.18;;;2.65;;
45688;SDS011;31400;48.132;20.872;2022-09-03T02:11:21;5.85;;;2.72;;
45688;SDS011;31400;48.132;20.872;2022-09-03T02:13:51;4.85;;;2.08;;
45688;SDS011;31400;48.132;20.872;2022-09-03T02:16:24;8.07;;;2.75;;
45688;SDS011;31400;48.132;20.872;2022-09-03T02:18:57;6.63;;;3.25;;
45688;SDS011;31400;48.132;20.872;2022-09-03T02:21:24;8.23;;;3.63;;
45688;SDS011;31400;48.132;20.872;2022-09-03T02:23:51;6.80;;;2.97;;
45688;SDS011;31400;48.132;20.872;2022-09-03T02:28:44;6.78;;;3.47;;
45688;SDS011;31400;48.132;20.872;2022-09-03T02:33:37;10.10;;;3.15;;
45688;SDS011;31400;48.132;20.872;2022-09-03T02:36:05;7.75;;;3.50;;
45688;SDS011;31400;48.132;20.872;2022-09-03T02:38:31;8.35;;;3.45;;
45688;SDS011;31400;48.132;20.872;2022-09-03T02:40:57;9.60;;;5.78;;
45688;SDS011;31400;48.132;20.872;2022-09-03T02:45:54;5.90;;;3.35;;
45688;SDS011;31400;48.132;20.872;2022-09-03T02:48:22;7.55;;;2.90;;
45688;SDS011;31400;48.132;20.872;2022-09-03T02:50:49;10.88;;;3.83;;
45688;SDS011;31400;48.132;20.872;2022-09-03T02:53:15;7.28;;;3.40;;
45688;SDS011;31400;48.132;20.872;2022-09-03T02:55:41;7.55;;;3.33;;
45688;SDS011;31400;48.132;20.872;2022-09-03T02:58:07;8.93;;;3.55;;
45688;SDS011;31400;48.132;20.872;2022-09-03T03:00:34;5.32;;;3.15;;
45688;SDS011;31400;48.132;20.872;2022-09-03T03:03:01;5.30;;;2.78;;
45688;SDS011;31400;48.132;20.872;2022-09-03T03:05:35;6.90;;;3.08;;
45688;SDS011;31400;48.132;20.872;2022-09-03T03:08:06;7.00;;;3.63;;
45688;SDS011;31400;48.132;20.872;2022-09-03T03:12:59;7.45;;;3.13;;
45688;SDS011;31400;48.132;20.872;2022-09-03T03:15:25;5.30;;;3.10;;
45688;SDS011;31400;48.132;20.872;2022-09-03T03:17:54;6.97;;;3.42;;
45688;SDS011;31400;48.132;20.872;2022-09-03T03:20:21;5.72;;;2.88;;
45688;SDS011;31400;48.132;20.872;2022-09-03T03:22:47;5.75;;;3.85;;
45688;SDS011;31400;48.132;20.872;2022-09-03T03:25:13;6.63;;;3.33;;
45688;SDS011;31400;48.132;20.872;2022-09-03T03:27:39;6.32;;;3.78;;
45688;SDS011;31400;48.132;20.872;2022-09-03T03:30:06;5.93;;;3.50;;
45688;SDS011;31400;48.132;20.872;2022-09-03T03:32:34;8.30;;;3.45;;
45688;SDS011;31400;48.132;20.872;2022-09-03T03:35:00;15.15;;;3.78;;
45688;SDS011;31400;48.132;20.872;2022-09-03T03:37:26;7.95;;;3.67;;
45688;SDS011;31400;48.132;20.872;2022-09-03T03:39:52;5.28;;;3.53;;
45688;SDS011;31400;48.132;20.872;2022-09-03T03:44:45;10.07;;;4.38;;
45688;SDS011;31400;48.132;20.872;2022-09-03T03:47:11;13.57;;;4.40;;
45688;SDS011;31400;48.132;20.872;2022-09-03T03:52:13;4.38;;;2.80;;
45688;SDS011;31400;48.132;20.872;2022-09-03T03:54:42;5.82;;;3.00;;
45688;SDS011;31400;48.132;20.872;2022-09-03T03:57:16;7.35;;;2.70;;
45688;SDS011;31400;48.132;20.872;2022-09-03T03:59:43;7.50;;;3.88;;
45688;SDS011;31400;48.132;20.872;2022-09-03T04:02:10;7.68;;;3.63;;
45688;SDS011;31400;48.132;20.872;2022-09-03T04:04:42;6.35;;;3.53;;
45688;SDS011;31400;48.132;20.872;2022-09-03T04:07:11;7.20;;;3.50;;
45688;SDS011;31400;48.132;20.872;2022-09-03T04:09:37;5.38;;;3.45;;
45688;SDS011;31400;48.132;20.872;2022-09-03T04:12:03;5.53;;;3.33;;
45688;SDS011;31400;48.132;20.872;2022-09-03T04:14:33;6.65;;;3.63;;
45688;SDS011;31400;48.132;20.872;2022-09-03T04:16:59;5.47;;;3.17;;
45688;SDS011;31400;48.132;20.872;2022-09-03T04:19:32;11.13;;;4.15;;
45688;SDS011;31400;48.132;20.872;2022-09-03T04:21:58;7.90;;;3.13;;
45688;SDS011;31400;48.132;20.872;2022-09-03T04:24:28;8.68;;;3.03;;
45688;SDS011;31400;48.132;20.872;2022-09-03T04:26:54;5.80;;;2.47;;
45688;SDS011;31400;48.132;20.872;2022-09-03T04:29:32;6.97;;;3.00;;
45688;SDS011;31400;48.132;20.872;2022-09-03T04:31:59;6.50;;;2.92;;
45688;SDS011;31400;48.132;20.872;2022-09-03T04:34:43;5.93;;;2.97;;
45688;SDS011;31400;48.132;20.872;2022-09-03T04:37:09;4.05;;;2.22;;
45688;SDS011;31400;48.132;20.872;2022-09-03T04:39:43;6.28;;;2.75;;
45688;SDS011;31400;48.132;20.872;2022-09-03T04:42:09;11.23;;;2.55;;
45688;SDS011;31400;48.132;20.872;2022-09-03T04:44:35;8.35;;;2.88;;
45688;SDS011;31400;48.132;20.872;2022-09-03T04:47:03;5.57;;;2.97;;
45688;SDS011;31400;48.132;20.872;2022-09-03T04:49:29;9.60;;;2.53;;
45688;SDS011;31400;48.132;20.872;2022-09-03T04:51:56;5.75;;;2.65;;
45688;SDS011;31400;48.132;20.872;2022-09-03T04:54:27;4.07;;;2.20;;
45688;SDS011;31400;48.132;20.872;2022-09-03T04:59:19;5.00;;;2.20;;
45688;SDS011;31400;48.132;20.872;2022-09-03T05:04:16;7.47;;;2.60;;
45688;SDS011;31400;48.132;20.872;2022-09-03T05:06:45;5.22;;;2.25;;
45688;SDS011;31400;48.132;20.872;2022-09-03T05:09:12;5.10;;;2.13;;
45688;SDS011;31400;48.132;20.872;2022-09-03T05:11:39;4.95;;;2.42;;
45688;SDS011;31400;48.132;20.872;2022-09-03T05:14:05;6.68;;;2.15;;
45688;SDS011;31400;48.132;20.872;2022-09-03T05:16:35;5.30;;;2.17;;
45688;SDS011;31400;48.132;20.872;2022-09-03T05:19:01;4.22;;;1.98;;
45688;SDS011;31400;48.132;20.872;2022-09-03T05:21:32;4.80;;;2.00;;
45688;SDS011;31400;48.132;20.872;2022-09-03T05:24:00;4.70;;;1.75;;
45688;SDS011;31400;48.132;20.872;2022-09-03T05:26:27;3.28;;;1.80;;
45688;SDS011;31400;48.132;20.872;2022-09-03T05:28:58;3.15;;;1.67;;
45688;SDS011;31400;48.132;20.872;2022-09-03T05:31:25;5.53;;;2.05;;
45688;SDS011;31400;48.132;20.872;2022-09-03T05:33:59;8.48;;;2.88;;
45688;SDS011;31400;48.132;20.872;2022-09-03T05:36:27;5.13;;;2.13;;
45688;SDS011;31400;48.132;20.872;2022-09-03T05:38:53;7.68;;;2.25;;
45688;SDS011;31400;48.132;20.872;2022-09-03T05:41:20;5.32;;;2.83;;
45688;SDS011;31400;48.132;20.872;2022-09-03T05:43:47;4.60;;;2.58;;
45688;SDS011;31400;48.132;20.872;2022-09-03T05:46:20;4.78;;;2.38;;
45688;SDS011;31400;48.132;20.872;2022-09-03T05:48:50;5.70;;;2.53;;
45688;SDS011;31400;48.132;20.872;2022-09-03T05:51:17;7.63;;;2.15;;
45688;SDS011;31400;48.132;20.872;2022-09-03T05:53:56;5.03;;;2.03;;
45688;SDS011;31400;48.132;20.872;2022-09-03T05:56:23;3.70;;;2.08;;
45688;SDS011;31400;48.132;20.872;2022-09-03T05:58:53;3.90;;;2.20;;
45688;SDS011;31400;48.132;20.872;2022-09-03T06:01:25;4.75;;;2.13;;
45688;SDS011;31400;48.132;20.872;2022-09-03T06:04:26;6.30;;;3.00;;
45688;SDS011;31400;48.132;20.872;2022-09-03T06:06:45;5.22;;;2.45;;
45688;SDS011;31400;48.132;20.872;2022-09-03T06:09:13;3.95;;;1.95;;
45688;SDS011;31400;48.132;20.872;2022-09-03T06:11:41;4.63;;;1.92;;
45688;SDS011;31400;48.132;20.872;2022-09-03T06:14:07;4.43;;;2.65;;
45688;SDS011;31400;48.132;20.872;2022-09-03T06:16:35;4.18;;;1.77;;
45688;SDS011;31400;48.132;20.872;2022-09-03T06:19:03;6.32;;;2.63;;
45688;SDS011;31400;48.132;20.872;2022-09-03T06:21:34;4.75;;;2.38;;
45688;SDS011;31400;48.132;20.872;2022-09-03T06:24:00;4.65;;;2.05;;
45688;SDS011;31400;48.132;20.872;2022-09-03T06:26:32;5.63;;;2.38;;
45688;SDS011;31400;48.132;20.872;2022-09-03T06:29:00;4.72;;;2.13;;
45688;SDS011;31400;48.132;20.872;2022-09-03T06:31:29;6.82;;;2.38;;
45688;SDS011;31400;48.132;20.872;2022-09-03T06:33:58;6.30;;;1.95;;
45688;SDS011;31400;48.132;20.872;2022-09-03T06:36:24;5.28;;;1.95;;
45688;SDS011;31400;48.132;20.872;2022-09-03T06:38:54;5.18;;;2.55;;
45688;SDS011;31400;48.132;20.872;2022-09-03T06:41:22;3.75;;;2.30;;
45688;SDS011;31400;48.132;20.872;2022-09-03T06:43:52;7.13;;;3.13;;
45688;SDS011;31400;48.132;20.872;2022-09-03T06:46:22;5.07;;;2.50;;
45688;SDS011;31400;48.132;20.872;2022-09-03T06:48:51;5.20;;;2.05;;
45688;SDS011;31400;48.132;20.872;2022-09-03T06:51:21;5.95;;;2.78;;
45688;SDS011;31400;48.132;20.872;2022-09-03T06:53:48;5.47;;;2.00;;
45688;SDS011;31400;48.132;20.872;2022-09-03T06:56:19;6.93;;;2.75;;
45688;SDS011;31400;48.132;20.872;2022-09-03T06:58:52;6.50;;;2.97;;
45688;SDS011;31400;48.132;20.872;2022-09-03T07:01:22;4.75;;;2.78;;
45688;SDS011;31400;48.132;20.872;2022-09-03T07:03:53;4.57;;;2.35;;
45688;SDS011;31400;48.132;20.872;2022-09-03T07:06:23;4.07;;;2.10;;
45688;SDS011;31400;48.132;20.872;2022-09-03T07:08:51;7.88;;;2.20;;
45688;SDS011;31400;48.132;20.872;2022-09-03T07:11:22;8.52;;;3.25;;
45688;SDS011;31400;48.132;20.872;2022-09-03T07:13:49;4.82;;;2.10;;
45688;SDS011;31400;48.132;20.872;2022-09-03T07:16:17;4.00;;;2.10;;
45688;SDS011;31400;48.132;20.872;2022-09-03T07:18:43;5.28;;;2.53;;
45688;SDS011;31400;48.132;20.872;2022-09-03T07:21:11;4.25;;;2.05;;
45688;SDS011;31400;48.132;20.872;2022-09-03T07:23:38;5.35;;;2.38;;
45688;SDS011;31400;48.132;20.872;2022-09-03T07:26:05;6.50;;;2.42;;
45688;SDS011;31400;48.132;20.872;2022-09-03T07:28:34;4.65;;;2.03;;
45688;SDS011;31400;48.132;20.872;2022-09-03T07:31:10;4.22;;;1.98;;
45688;SDS011;31400;48.132;20.872;2022-09-03T07:33:37;4.90;;;1.80;;
45688;SDS011;31400;48.132;20.872;2022-09-03T07:38:30;4.53;;;1.83;;
45688;SDS011;31400;48.132;20.872;2022-09-03T07:40:57;5.07;;;2.72;;
45688;SDS011;31400;48.132;20.872;2022-09-03T07:43:27;4.07;;;2.08;;
45688;SDS011;31400;48.132;20.872;2022-09-03T07:45:53;6.32;;;1.85;;
45688;SDS011;31400;48.132;20.872;2022-09-03T07:48:21;6.93;;;2.60;;
45688;SDS011;31400;48.132;20.872;2022-09-03T07:50:47;5.15;;;2.58;;
45688;SDS011;31400;48.132;20.872;2022-09-03T07:53:16;5.85;;;2.45;;
45688;SDS011;31400;48.132;20.872;2022-09-03T07:55:44;5.30;;;1.85;;
45688;SDS011;31400;48.132;20.872;2022-09-03T07:58:15;4.00;;;2.45;;
45688;SDS011;31400;48.132;20.872;2022-09-03T08:00:42;5.63;;;2.00;;
45688;SDS011;31400;48.132;20.872;2022-09-03T08:03:12;5.13;;;2.00;;
45688;SDS011;31400;48.132;20.872;2022-09-03T08:05:38;3.70;;;1.75;;
45688;SDS011;31400;48.132;20.872;2022-09-03T08:08:04;5.68;;;2.35;;
45688;SDS011;31400;48.132;20.872;2022-09-03T08:10:35;6.95;;;2.13;;
45688;SDS011;31400;48.132;20.872;2022-09-03T08:13:02;3.45;;;1.58;;
45688;SDS011;31400;48.132;20.872;2022-09-03T08:15:32;5.63;;;2.25;;
45688;SDS011;31400;48.132;20.872;2022-09-03T08:17:59;6.95;;;2.60;;
45688;SDS011;31400;48.132;20.872;2022-09-03T08:20:25;9.90;;;3.03;;
45688;SDS011;31400;48.132;20.872;2022-09-03T08:22:52;8.23;;;2.40;;
45688;SDS011;31400;48.132;20.872;2022-09-03T08:25:21;4.15;;;1.98;;
45688;SDS011;31400;48.132;20.872;2022-09-03T08:27:47;4.25;;;2.30;;
45688;SDS011;31400;48.132;20.872;2022-09-03T08:30:13;4.47;;;2.85;;
45688;SDS011;31400;48.132;20.872;2022-09-03T08:32:39;3.47;;;1.80;;
45688;SDS011;31400;48.132;20.872;2022-09-03T08:35:06;5.97;;;2.10;;
45688;SDS011;31400;48.132;20.872;2022-09-03T08:37:33;3.25;;;1.65;;
45688;SDS011;31400;48.132;20.872;2022-09-03T08:39:59;3.80;;;1.85;;
45688;SDS011;31400;48.132;20.872;2022-09-03T08:44:54;4.68;;;1.92;;
45688;SDS011;31400;48.132;20.872;2022-09-03T08:47:25;5.60;;;2.20;;
45688;SDS011;31400;48.132;20.872;2022-09-03T08:49:55;3.22;;;1.52;;
45688;SDS011;31400;48.132;20.872;2022-09-03T08:52:30;4.80;;;2.53;;
45688;SDS011;31400;48.132;20.872;2022-09-03T08:55:49;3.47;;;2.10;;
45688;SDS011;31400;48.132;20.872;2022-09-03T09:00:10;3.40;;;1.50;;
45688;SDS011;31400;48.132;20.872;2022-09-03T09:02:43;3.60;;;1.73;;
45688;SDS011;31400;48.132;20.872;2022-09-03T09:05:18;7.38;;;2.20;;
45688;SDS011;31400;48.132;20.872;2022-09-03T09:10:37;3.83;;;2.22;;
45688;SDS011;31400;48.132;20.872;2022-09-03T09:18:23;4.97;;;2.15;;
45688;SDS011;31400;48.132;20.872;2022-09-03T09:23:48;5.00;;;1.98;;
45688;SDS011;31400;48.132;20.872;2022-09-03T09:26:15;3.63;;;1.60;;
45688;SDS011;31400;48.132;20.872;2022-09-03T09:28:44;3.72;;;1.90;;
45688;SDS011;31400;48.132;20.872;2022-09-03T09:31:12;3.88;;;1.92;;
45688;SDS011;31400;48.132;20.872;2022-09-03T09:33:40;5.10;;;2.17;;
45688;SDS011;31400;48.132;20.872;2022-09-03T09:36:10;3.35;;;1.75;;
45688;SDS011;31400;48.132;20.872;2022-09-03T09:38:39;4.25;;;1.60;;
45688;SDS011;31400;48.132;20.872;2022-09-03T09:41:16;5.00;;;1.85;;
45688;SDS011;31400;48.132;20.872;2022-09-03T09:43:43;4.85;;;2.03;;
45688;SDS011;31400;48.132;20.872;2022-09-03T09:46:21;5.38;;;2.38;;
45688;SDS011;31400;48.132;20.872;2022-09-03T09:48:55;3.35;;;1.52;;
45688;SDS011;31400;48.132;20.872;2022-09-03T09:51:25;3.20;;;1.80;;
45688;SDS011;31400;48.132;20.872;2022-09-03T09:54:23;4.18;;;1.92;;
45688;SDS011;31400;48.132;20.872;2022-09-03T09:57:05;5.40;;;2.08;;
45688;SDS011;31400;48.132;20.872;2022-09-03T09:59:33;4.95;;;1.67;;
45688;SDS011;31400;48.132;20.872;2022-09-03T10:04:37;5.50;;;2.00;;
45688;SDS011;31400;48.132;20.872;2022-09-03T10:10:05;5.05;;;1.77;;
45688;SDS011;31400;48.132;20.872;2022-09-03T10:22:59;5.20;;;1.50;;
45688;SDS011;31400;48.132;20.872;2022-09-03T10:25:33;3.00;;;1.35;;
45688;SDS011;31400;48.132;20.872;2022-09-03T10:28:03;4.70;;;1.75;;
45688;SDS011;31400;48.132;20.872;2022-09-03T10:30:30;2.13;;;1.20;;
45688;SDS011;31400;48.132;20.872;2022-09-03T10:33:05;3.28;;;1.25;;
45688;SDS011;31400;48.132;20.872;2022-09-03T10:35:37;2.38;;;1.30;;
45688;SDS011;31400;48.132;20.872;2022-09-03T10:38:15;3.03;;;1.45;;
45688;SDS011;31400;48.132;20.872;2022-09-03T10:55:39;3.72;;;1.83;;
45688;SDS011;31400;48.132;20.872;2022-09-03T11:00:45;3.70;;;1.40;;
45688;SDS011;31400;48.132;20.872;2022-09-03T11:08:33;4.35;;;2.03;;
45688;SDS011;31400;48.132;20.872;2022-09-03T11:13:48;3.65;;;1.67;;
45688;SDS011;31400;48.132;20.872;2022-09-03T11:16:19;5.15;;;2.55;;
45688;SDS011;31400;48.132;20.872;2022-09-03T11:19:11;5.63;;;1.60;;
45688;SDS011;31400;48.132;20.872;2022-09-03T11:21:36;3.13;;;1.98;;
45688;SDS011;31400;48.132;20.872;2022-09-03T11:24:22;2.47;;;1.30;;
45688;SDS011;31400;48.132;20.872;2022-09-03T11:27:34;4.10;;;1.93;;
45688;SDS011;31400;48.132;20.872;2022-09-03T11:29:44;4.45;;;1.48;;
45688;SDS011;31400;48.132;20.872;2022-09-03T11:32:23;2.28;;;1.15;;
45688;SDS011;31400;48.132;20.872;2022-09-03T11:34:52;1.90;;;1.00;;
45688;SDS011;31400;48.132;20.872;2022-09-03T11:39:51;2.40;;;1.20;;
45688;SDS011;31400;48.132;20.872;2022-09-03T11:42:26;4.00;;;1.58;;
45688;SDS011;31400;48.132;20.872;2022-09-03T11:44:58;2.53;;;1.33;;
45688;SDS011;31400;48.132;20.872;2022-09-03T11:47:43;10.02;;;2.60;;
45688;SDS011;31400;48.132;20.872;2022-09-03T11:50:17;3.00;;;1.65;;
45688;SDS011;31400;48.132;20.872;2022-09-03T11:52:48;1.85;;;1.02;;
45688;SDS011;31400;48.132;20.872;2022-09-03T11:57:51;2.75;;;1.60;;
45688;SDS011;31400;48.132;20.872;2022-09-03T12:00:17;3.28;;;1.48;;
45688;SDS011;31400;48.132;20.872;2022-09-03T12:02:47;4.43;;;1.48;;
45688;SDS011;31400;48.132;20.872;2022-09-03T12:10:37;3.75;;;1.52;;
45688;SDS011;31400;48.132;20.872;2022-09-03T12:20:47;3.38;;;1.27;;
45688;SDS011;31400;48.132;20.872;2022-09-03T12:23:27;2.92;;;1.60;;
45688;SDS011;31400;48.132;20.872;2022-09-03T12:26:07;2.88;;;1.35;;
45688;SDS011;31400;48.132;20.872;2022-09-03T12:28:38;1.65;;;0.85;;
45688;SDS011;31400;48.132;20.872;2022-09-03T12:36:22;2.10;;;1.13;;
45688;SDS011;31400;48.132;20.872;2022-09-03T12:38:49;3.03;;;1.45;;
45688;SDS011;31400;48.132;20.872;2022-09-03T12:41:22;4.55;;;1.40;;
45688;SDS011;31400;48.132;20.872;2022-09-03T12:43:52;4.07;;;1.55;;
45688;SDS011;31400;48.132;20.872;2022-09-03T12:46:21;2.97;;;1.58;;
45688;SDS011;31400;48.132;20.872;2022-09-03T12:51:30;3.78;;;1.25;;
45688;SDS011;31400;48.132;20.872;2022-09-03T12:53:56;2.70;;;1.80;;
45688;SDS011;31400;48.132;20.872;2022-09-03T12:56:22;2.70;;;1.35;;
45688;SDS011;31400;48.132;20.872;2022-09-03T12:58:50;3.22;;;1.55;;
45688;SDS011;31400;48.132;20.872;2022-09-03T13:02:01;2.22;;;1.10;;
45688;SDS011;31400;48.132;20.872;2022-09-03T13:04:08;1.92;;;1.10;;
45688;SDS011;31400;48.132;20.872;2022-09-03T13:09:24;2.47;;;1.37;;
45688;SDS011;31400;48.132;20.872;2022-09-03T13:11:53;3.00;;;1.50;;
45688;SDS011;31400;48.132;20.872;2022-09-03T13:14:20;2.80;;;1.13;;
45688;SDS011;31400;48.132;20.872;2022-09-03T13:17:01;2.55;;;1.30;;
45688;SDS011;31400;48.132;20.872;2022-09-03T13:20:14;4.28;;;2.13;;
45688;SDS011;31400;48.132;20.872;2022-09-03T13:30:22;5.57;;;2.05;;
45688;SDS011;31400;48.132;20.872;2022-09-03T13:32:56;2.92;;;1.25;;
45688;SDS011;31400;48.132;20.872;2022-09-03T13:40:40;1.75;;;1.13;;
45688;SDS011;31400;48.132;20.872;2022-09-03T13:43:15;2.05;;;1.10;;
45688;SDS011;31400;48.132;20.872;2022-09-03T13:46:06;2.03;;;1.10;;
45688;SDS011;31400;48.132;20.872;2022-09-03T13:48:38;1.63;;;0.88;;
45688;SDS011;31400;48.132;20.872;2022-09-03T13:51:37;2.42;;;0.98;;
45688;SDS011;31400;48.132;20.872;2022-09-03T13:54:11;2.08;;;1.08;;
45688;SDS011;31400;48.132;20.872;2022-09-03T14:01:42;3.35;;;1.70;;
45688;SDS011;31400;48.132;20.872;2022-09-03T14:04:18;2.72;;;0.88;;
45688;SDS011;31400;48.132;20.872;2022-09-03T14:07:00;2.50;;;1.30;;
45688;SDS011;31400;48.132;20.872;2022-09-03T14:12:08;3.50;;;0.93;;
45688;SDS011;31400;48.132;20.872;2022-09-03T14:14:51;2.78;;;0.90;;
45688;SDS011;31400;48.132;20.872;2022-09-03T14:19:47;2.22;;;1.15;;
45688;SDS011;31400;48.132;20.872;2022-09-03T14:22:21;2.95;;;1.08;;
45688;SDS011;31400;48.132;20.872;2022-09-03T14:25:08;1.63;;;1.00;;
45688;SDS011;31400;48.132;20.872;2022-09-03T14:27:36;1.75;;;0.98;;
45688;SDS011;31400;48.132;20.872;2022-09-03T14:30:06;1.38;;;1.20;;
45688;SDS011;31400;48.132;20.872;2022-09-03T14:40:11;2.13;;;1.08;;
45688;SDS011;31400;48.132;20.872;2022-09-03T15:01:10;3.00;;;1.73;;
45688;SDS011;31400;48.132;20.872;2022-09-03T15:06:24;1.70;;;0.77;;
45688;SDS011;31400;48.132;20.872;2022-09-03T15:11:45;1.50;;;0.88;;
45688;SDS011;31400;48.132;20.872;2022-09-03T15:14:12;1.75;;;0.95;;
45688;SDS011;31400;48.132;20.872;2022-09-03T15:22:06;1.67;;;1.02;;
45688;SDS011;31400;48.132;20.872;2022-09-03T15:24:52;1.23;;;0.68;;
45688;SDS011;31400;48.132;20.872;2022-09-03T15:29:56;1.83;;;1.00;;
45688;SDS011;31400;48.132;20.872;2022-09-03T15:33:08;1.13;;;0.60;;
45688;SDS011;31400;48.132;20.872;2022-09-03T15:37:59;1.90;;;1.03;;
45688;SDS011;31400;48.132;20.872;2022-09-03T15:40:33;4.20;;;0.70;;
45688;SDS011;31400;48.132;20.872;2022-09-03T15:43:04;13.88;;;1.83;;
45688;SDS011;31400;48.132;20.872;2022-09-03T15:48:28;3.65;;;1.33;;
45688;SDS011;31400;48.132;20.872;2022-09-03T15:51:08;3.25;;;0.70;;
45688;SDS011;31400;48.132;20.872;2022-09-03T15:53:54;9.90;;;1.35;;
45688;SDS011;31400;48.132;20.872;2022-09-03T16:01:44;8.70;;;2.35;;
45688;SDS011;31400;48.132;20.872;2022-09-03T16:10:04;3.78;;;0.80;;
45688;SDS011;31400;48.132;20.872;2022-09-03T16:15:06;1.08;;;0.63;;
45688;SDS011;31400;48.132;20.872;2022-09-03T16:20:19;1.33;;;0.80;;
45688;SDS011;31400;48.132;20.872;2022-09-03T16:25:28;2.30;;;0.98;;
45688;SDS011;31400;48.132;20.872;2022-09-03T16:27:57;15.73;;;1.63;;
45688;SDS011;31400;48.132;20.872;2022-09-03T16:30:33;2.58;;;1.20;;
45688;SDS011;31400;48.132;20.872;2022-09-03T16:33:05;4.43;;;1.17;;
45688;SDS011;31400;48.132;20.872;2022-09-03T16:38:27;1.95;;;1.00;;
45688;SDS011;31400;48.132;20.872;2022-09-03T16:46:28;1.63;;;0.68;;
45688;SDS011;31400;48.132;20.872;2022-09-03T16:51:43;1.83;;;0.95;;
45688;SDS011;31400;48.132;20.872;2022-09-03T17:08:03;7.00;;;1.48;;
45688;SDS011;31400;48.132;20.872;2022-09-03T17:10:36;4.28;;;1.95;;
45688;SDS011;31400;48.132;20.872;2022-09-03T17:13:18;2.92;;;1.20;;
45688;SDS011;31400;48.132;20.872;2022-09-03T17:36:26;1.67;;;0.80;;
45688;SDS011;31400;48.132;20.872;2022-09-03T17:41:45;3.53;;;0.85;;
45688;SDS011;31400;48.132;20.872;2022-09-03T17:44:18;1.73;;;0.80;;
45688;SDS011;31400;48.132;20.872;2022-09-03T17:46:59;5.03;;;0.82;;
45688;SDS011;31400;48.132;20.872;2022-09-03T17:49:42;6.40;;;1.25;;
45688;SDS011;31400;48.132;20.872;2022-09-03T17:54:50;1.50;;;0.90;;
45688;SDS011;31400;48.132;20.872;2022-09-03T17:57:19;1.60;;;0.80;;
45688;SDS011;31400;48.132;20.872;2022-09-03T17:59:54;1.17;;;0.70;;
45688;SDS011;31400;48.132;20.872;2022-09-03T18:02:42;1.45;;;0.52;;
45688;SDS011;31400;48.132;20.872;2022-09-03T18:08:04;0.93;;;0.45;;
45688;SDS011;31400;48.132;20.872;2022-09-03T18:18:44;0.77;;;0.50;;
45688;SDS011;31400;48.132;20.872;2022-09-03T18:21:13;1.58;;;0.60;;
45688;SDS011;31400;48.132;20.872;2022-09-03T18:24:18;0.43;;;0.40;;
45688;SDS011;31400;48.132;20.872;2022-09-03T18:27:16;2.10;;;0.63;;
45688;SDS011;31400;48.132;20.872;2022-09-03T18:30:04;0.68;;;0.50;;
45688;SDS011;31400;48.132;20.872;2022-09-03T18:32:49;0.55;;;0.38;;
45688;SDS011;31400;48.132;20.872;2022-09-03T18:35:34;0.85;;;0.40;;
45688;SDS011;31400;48.132;20.872;2022-09-03T18:38:24;0.60;;;0.38;;
45688;SDS011;31400;48.132;20.872;2022-09-03T18:44:38;1.10;;;0.47;;
45688;SDS011;31400;48.132;20.872;2022-09-03T18:47:48;0.43;;;0.40;;
45688;SDS011;31400;48.132;20.872;2022-09-03T18:50:11;1.30;;;0.63;;
45688;SDS011;31400;48.132;20.872;2022-09-03T18:52:58;0.95;;;0.50;;
45688;SDS011;31400;48.132;20.872;2022-09-03T18:55:55;1.80;;;0.52;;
45688;SDS011;31400;48.132;20.872;2022-09-03T19:02:02;1.15;;;0.55;;
45688;SDS011;31400;48.132;20.872;2022-09-03T19:07:57;1.15;;;0.57;;
45688;SDS011;31400;48.132;20.872;2022-09-03T19:22:03;0.85;;;0.57;;
45688;SDS011;31400;48.132;20.872;2022-09-03T19:24:51;1.08;;;0.50;;
45688;SDS011;31400;48.132;20.872;2022-09-03T19:27:41;0.60;;;0.55;;
45688;SDS011;31400;48.132;20.872;2022-09-03T19:42:07;0.98;;;0.60;;
45688;SDS011;31400;48.132;20.872;2022-09-03T19:48:42;1.05;;;0.50;;
45688;SDS011;31400;48.132;20.872;2022-09-03T19:51:12;0.68;;;0.60;;
45688;SDS011;31400;48.132;20.872;2022-09-03T19:53:59;1.15;;;0.60;;
45688;SDS011;31400;48.132;20.872;2022-09-03T19:59:32;1.83;;;0.70;;
45688;SDS011;31400;48.132;20.872;2022-09-03T20:02:18;1.25;;;0.75;;
45688;SDS011;31400;48.132;20.872;2022-09-03T20:05:06;0.82;;;0.47;;
45688;SDS011;31400;48.132;20.872;2022-09-03T20:07:53;1.20;;;0.60;;
45688;SDS011;31400;48.132;20.872;2022-09-03T20:10:38;1.17;;;0.63;;
45688;SDS011;31400;48.132;20.872;2022-09-03T20:13:24;3.47;;;0.75;;
45688;SDS011;31400;48.132;20.872;2022-09-03T20:21:29;2.72;;;0.80;;
45688;SDS011;31400;48.132;20.872;2022-09-03T20:31:48;1.63;;;0.95;;
45688;SDS011;31400;48.132;20.872;2022-09-03T20:34:24;1.05;;;0.70;;
45688;SDS011;31400;48.132;20.872;2022-09-03T20:36:55;1.17;;;0.80;;
45688;SDS011;31400;48.132;20.872;2022-09-03T20:39:34;3.83;;;0.90;;
45688;SDS011;31400;48.132;20.872;2022-09-03T20:55:42;2.35;;;0.90;;
45688;SDS011;31400;48.132;20.872;2022-09-03T21:00:46;1.08;;;0.60;;
45688;SDS011;31400;48.132;20.872;2022-09-03T21:03:21;1.20;;;0.80;;
45688;SDS011;31400;48.132;20.872;2022-09-03T21:08:54;1.88;;;0.80;;
45688;SDS011;31400;48.132;20.872;2022-09-03T21:22:03;1.20;;;0.80;;
45688;SDS011;31400;48.132;20.872;2022-09-03T21:24:34;0.50;;;0.50;;
45688;SDS011;31400;48.132;20.872;2022-09-03T21:27:08;1.20;;;0.68;;
45688;SDS011;31400;48.132;20.872;2022-09-03T21:32:40;1.70;;;1.00;;
45688;SDS011;31400;48.132;20.872;2022-09-03T21:37:40;1.30;;;0.70;;
45688;SDS011;31400;48.132;20.872;2022-09-03T21:40:09;1.55;;;0.88;;
45688;SDS011;31400;48.132;20.872;2022-09-03T21:42:42;2.17;;;0.65;;
45688;SDS011;31400;48.132;20.872;2022-09-03T21:45:13;2.60;;;0.82;;
45688;SDS011;31400;48.132;20.872;2022-09-03T21:47:52;1.42;;;0.70;;